sensor_id;sensor_type;location;lat;lon;timestamp;pressure;altitude;pressure_sealevel;temperature;humidity
11017;BME280;54687;50.800;6.772;2023-05-07T00:01:11;60960.84;;;-144.06;66.47
11017;BME280;54687;50.800;6.772;2023-05-07T00:03:37;60986.00;;;-144.06;66.56
11017;BME280;54687;50.800;6.772;2023-05-07T00:06:04;60958.75;;;-144.06;66.63
11017;BME280;54687;50.800;6.772;2023-05-07T00:08:31;60971.34;;;-144.06;66.66
11017;BME280;54687;50.800;6.772;2023-05-07T00:10:59;60921.03;;;-144.06;66.54
11017;BME280;54687;50.800;6.772;2023-05-07T00:13:25;60958.75;;;-144.06;66.52
11017;BME280;54687;50.800;6.772;2023-05-07T00:15:52;60950.38;;;-144.06;66.64
11017;BME280;54687;50.800;6.772;2023-05-07T00:18:19;60994.38;;;-144.06;66.24
11017;BME280;54687;50.800;6.772;2023-05-07T00:20:47;60941.97;;;-144.06;66.14
11017;BME280;54687;50.800;6.772;2023-05-07T00:23:14;60996.50;;;-144.06;66.37
11017;BME280;54687;50.800;6.772;2023-05-07T00:25:40;61004.88;;;-144.06;66.20
11017;BME280;54687;50.800;6.772;2023-05-07T00:28:08;60971.34;;;-144.06;66.08
11017;BME280;54687;50.800;6.772;2023-05-07T00:30:35;60929.41;;;-144.06;66.09
11017;BME280;54687;50.800;6.772;2023-05-07T00:33:01;60956.66;;;-144.06;65.92
11017;BME280;54687;50.800;6.772;2023-05-07T00:35:28;60967.13;;;-144.06;65.86
11017;BME280;54687;50.800;6.772;2023-05-07T00:37:55;60988.09;;;-144.06;65.48
11017;BME280;54687;50.800;6.772;2023-05-07T00:40:21;60958.75;;;-144.06;65.70
11017;BME280;54687;50.800;6.772;2023-05-07T00:42:48;60950.38;;;-144.06;65.89
11017;BME280;54687;50.800;6.772;2023-05-07T00:45:16;60958.75;;;-144.06;66.28
11017;BME280;54687;50.800;6.772;2023-05-07T00:47:43;60965.03;;;-144.06;66.77
11017;BME280;54687;50.800;6.772;2023-05-07T00:50:10;60979.72;;;-144.06;66.99
11017;BME280;54687;50.800;6.772;2023-05-07T00:52:37;60958.75;;;-144.06;67.22
11017;BME280;54687;50.800;6.772;2023-05-07T00:55:06;60983.91;;;-144.06;67.53
11017;BME280;54687;50.800;6.772;2023-05-07T00:57:36;60958.75;;;-144.06;67.45
11017;BME280;54687;50.800;6.772;2023-05-07T01:00:04;60996.50;;;-144.06;67.47
11017;BME280;54687;50.800;6.772;2023-05-07T01:02:32;60958.75;;;-144.06;67.47
11017;BME280;54687;50.800;6.772;2023-05-07T01:05:00;60969.22;;;-144.06;67.46
11017;BME280;54687;50.800;6.772;2023-05-07T01:07:27;60946.19;;;-144.06;67.75
11017;BME280;54687;50.800;6.772;2023-05-07T01:09:53;60962.94;;;-144.06;67.79
11017;BME280;54687;50.800;6.772;2023-05-07T01:12:20;60967.13;;;-144.06;67.80
11017;BME280;54687;50.800;6.772;2023-05-07T01:14:47;60996.50;;;-144.06;67.82
11017;BME280;54687;50.800;6.772;2023-05-07T01:17:15;60975.53;;;-144.06;67.85
11017;BME280;54687;50.800;6.772;2023-05-07T01:19:43;60977.63;;;-144.06;67.95
11017;BME280;54687;50.800;6.772;2023-05-07T01:22:10;61000.69;;;-144.06;68.08
11017;BME280;54687;50.800;6.772;2023-05-07T01:24:38;60933.59;;;-144.06;68.38
11017;BME280;54687;50.800;6.772;2023-05-07T01:27:05;60975.53;;;-144.06;68.24
11017;BME280;54687;50.800;6.772;2023-05-07T01:29:32;60948.28;;;-144.06;68.06
11017;BME280;54687;50.800;6.772;2023-05-07T01:32:00;60988.09;;;-144.06;67.95
11017;BME280;54687;50.800;6.772;2023-05-07T01:34:28;60988.09;;;-144.06;67.75
11017;BME280;54687;50.800;6.772;2023-05-07T01:36:57;60977.63;;;-144.06;67.69
11017;BME280;54687;50.800;6.772;2023-05-07T01:39:26;60969.22;;;-144.06;67.59
11017;BME280;54687;50.800;6.772;2023-05-07T01:41:54;61000.69;;;-144.06;67.35
11017;BME280;54687;50.800;6.772;2023-05-07T01:44:22;60983.91;;;-144.06;67.72
11017;BME280;54687;50.800;6.772;2023-05-07T01:46:49;60962.94;;;-144.06;67.98
11017;BME280;54687;50.800;6.772;2023-05-07T01:49:16;60979.72;;;-144.06;68.13
11017;BME280;54687;50.800;6.772;2023-05-07T01:51:43;61004.88;;;-144.06;68.01
11017;BME280;54687;50.800;6.772;2023-05-07T01:54:10;60992.28;;;-144.06;67.81
11017;BME280;54687;50.800;6.772;2023-05-07T01:56:37;60967.13;;;-144.06;67.44
11017;BME280;54687;50.800;6.772;2023-05-07T01:59:04;60967.13;;;-144.06;67.42
11017;BME280;54687;50.800;6.772;2023-05-07T02:01:31;60946.19;;;-144.06;67.62
11017;BME280;54687;50.800;6.772;2023-05-07T02:03:58;60954.56;;;-144.06;67.27
11017;BME280;54687;50.800;6.772;2023-05-07T02:06:24;60967.13;;;-144.06;67.42
11017;BME280;54687;50.800;6.772;2023-05-07T02:08:51;60958.75;;;-144.06;67.27
11017;BME280;54687;50.800;6.772;2023-05-07T02:11:17;60933.59;;;-144.06;67.44
11017;BME280;54687;50.800;6.772;2023-05-07T02:13:44;60954.56;;;-144.06;67.33
11017;BME280;54687;50.800;6.772;2023-05-07T02:16:12;60975.53;;;-144.06;67.37
11017;BME280;54687;50.800;6.772;2023-05-07T02:18:39;60979.72;;;-144.06;67.36
11017;BME280;54687;50.800;6.772;2023-05-07T02:21:06;60994.38;;;-144.06;67.34
11017;BME280;54687;50.800;6.772;2023-05-07T02:23:32;60992.28;;;-144.06;67.30
11017;BME280;54687;50.800;6.772;2023-05-07T02:25:59;60954.56;;;-144.06;67.20
11017;BME280;54687;50.800;6.772;2023-05-07T02:28:25;60979.72;;;-144.06;67.28
11017;BME280;54687;50.800;6.772;2023-05-07T02:30:52;60937.78;;;-144.06;67.20
11017;BME280;54687;50.800;6.772;2023-05-07T02:33:20;60965.03;;;-144.06;67.21
11017;BME280;54687;50.800;6.772;2023-05-07T02:35:47;61013.25;;;-144.06;67.32
11017;BME280;54687;50.800;6.772;2023-05-07T02:38:13;60979.72;;;-144.06;67.39
11017;BME280;54687;50.800;6.772;2023-05-07T02:40:40;60956.66;;;-144.06;67.30
11017;BME280;54687;50.800;6.772;2023-05-07T02:43:07;60988.09;;;-144.06;67.28
11017;BME280;54687;50.800;6.772;2023-05-07T02:45:33;60971.34;;;-144.06;67.35
11017;BME280;54687;50.800;6.772;2023-05-07T02:48:00;60950.38;;;-144.06;67.35
11017;BME280;54687;50.800;6.772;2023-05-07T02:50:28;60952.47;;;-144.06;67.42
11017;BME280;54687;50.800;6.772;2023-05-07T02:52:54;60992.28;;;-144.06;67.27
11017;BME280;54687;50.800;6.772;2023-05-07T02:55:21;60967.13;;;-144.06;67.28
11017;BME280;54687;50.800;6.772;2023-05-07T02:57:48;61013.25;;;-144.06;67.26
11017;BME280;54687;50.800;6.772;2023-05-07T03:00:17;60975.53;;;-144.06;67.23
11017;BME280;54687;50.800;6.772;2023-05-07T03:02:44;60975.53;;;-144.06;67.20
11017;BME280;54687;50.800;6.772;2023-05-07T03:05:11;60996.50;;;-144.06;67.49
11017;BME280;54687;50.800;6.772;2023-05-07T03:07:39;60988.09;;;-144.06;67.43
11017;BME280;54687;50.800;6.772;2023-05-07T03:10:06;60983.91;;;-144.06;67.48
11017;BME280;54687;50.800;6.772;2023-05-07T03:12:33;61019.53;;;-144.06;67.53
11017;BME280;54687;50.800;6.772;2023-05-07T03:14:59;60992.28;;;-144.06;67.69
11017;BME280;54687;50.800;6.772;2023-05-07T03:17:26;60981.81;;;-144.06;67.87
11017;BME280;54687;50.800;6.772;2023-05-07T03:19:53;60975.53;;;-144.06;67.86
11017;BME280;54687;50.800;6.772;2023-05-07T03:22:20;60992.28;;;-144.06;68.23
11017;BME280;54687;50.800;6.772;2023-05-07T03:24:48;61000.69;;;-144.06;68.26
11017;BME280;54687;50.800;6.772;2023-05-07T03:27:14;60990.19;;;-144.06;68.55
11017;BME280;54687;50.800;6.772;2023-05-07T03:29:41;61030.03;;;-144.06;68.82
11017;BME280;54687;50.800;6.772;2023-05-07T03:32:08;60994.38;;;-144.06;69.16
11017;BME280;54687;50.800;6.772;2023-05-07T03:34:34;60958.75;;;-144.06;69.14
11017;BME280;54687;50.800;6.772;2023-05-07T03:37:01;61011.16;;;-144.06;69.02
11017;BME280;54687;50.800;6.772;2023-05-07T03:39:27;60983.91;;;-144.06;68.89
11017;BME280;54687;50.800;6.772;2023-05-07T03:41:55;60988.09;;;-144.06;68.94
11017;BME280;54687;50.800;6.772;2023-05-07T03:44:22;60988.09;;;-144.06;68.84
11017;BME280;54687;50.800;6.772;2023-05-07T03:46:48;61042.59;;;-144.06;68.81
11017;BME280;54687;50.800;6.772;2023-05-07T03:49:15;60971.34;;;-144.06;68.89
11017;BME280;54687;50.800;6.772;2023-05-07T03:51:42;61013.25;;;-144.06;68.76
11017;BME280;54687;50.800;6.772;2023-05-07T03:54:09;60994.38;;;-144.06;68.82
11017;BME280;54687;50.800;6.772;2023-05-07T03:56:35;60992.28;;;-144.06;68.72
11017;BME280;54687;50.800;6.772;2023-05-07T03:59:03;61009.06;;;-144.06;68.55
11017;BME280;54687;50.800;6.772;2023-05-07T04:01:29;61000.69;;;-144.06;68.59
11017;BME280;54687;50.800;6.772;2023-05-07T04:03:56;60998.59;;;-144.06;68.17
11017;BME280;54687;50.800;6.772;2023-05-07T04:06:22;61000.69;;;-144.06;68.35
11017;BME280;54687;50.800;6.772;2023-05-07T04:08:49;60996.50;;;-144.06;68.26
11017;BME280;54687;50.800;6.772;2023-05-07T04:11:16;61000.69;;;-144.06;68.08
11017;BME280;54687;50.800;6.772;2023-05-07T04:13:42;60983.91;;;-144.06;67.71
11017;BME280;54687;50.800;6.772;2023-05-07T04:16:11;60996.50;;;-144.06;67.77
11017;BME280;54687;50.800;6.772;2023-05-07T04:18:37;60948.28;;;-144.06;67.67
11017;BME280;54687;50.800;6.772;2023-05-07T04:21:04;61004.88;;;-144.06;67.46
11017;BME280;54687;50.800;6.772;2023-05-07T04:23:30;60992.28;;;-144.06;67.17
11017;BME280;54687;50.800;6.772;2023-05-07T04:25:57;61013.25;;;-144.06;67.34
11017;BME280;54687;50.800;6.772;2023-05-07T04:28:24;60988.09;;;-144.06;67.30
11017;BME280;54687;50.800;6.772;2023-05-07T04:30:51;60981.81;;;-144.06;67.17
11017;BME280;54687;50.800;6.772;2023-05-07T04:33:18;60983.91;;;-144.06;66.97
11017;BME280;54687;50.800;6.772;2023-05-07T04:35:45;60983.91;;;-144.06;66.90
11017;BME280;54687;50.800;6.772;2023-05-07T04:38:11;61002.78;;;-144.06;66.41
11017;BME280;54687;50.800;6.772;2023-05-07T04:40:38;61000.69;;;-144.06;66.42
11017;BME280;54687;50.800;6.772;2023-05-07T04:43:05;61000.69;;;-144.06;66.66
11017;BME280;54687;50.800;6.772;2023-05-07T04:45:32;60979.72;;;-144.06;66.66
11017;BME280;54687;50.800;6.772;2023-05-07T04:47:59;61004.88;;;-144.06;66.46
11017;BME280;54687;50.800;6.772;2023-05-07T04:50:27;60977.63;;;-144.06;66.10
11017;BME280;54687;50.800;6.772;2023-05-07T04:52:53;60967.13;;;-144.06;65.97
11017;BME280;54687;50.800;6.772;2023-05-07T04:55:20;60969.22;;;-144.06;66.02
11017;BME280;54687;50.800;6.772;2023-05-07T04:57:47;60958.75;;;-144.06;66.19
11017;BME280;54687;50.800;6.772;2023-05-07T05:00:14;60975.53;;;-144.06;66.39
11017;BME280;54687;50.800;6.772;2023-05-07T05:02:41;60967.13;;;-144.06;66.24
11017;BME280;54687;50.800;6.772;2023-05-07T05:05:08;60941.97;;;-144.06;65.61
11017;BME280;54687;50.800;6.772;2023-05-07T05:07:36;60979.72;;;-144.06;65.50
11017;BME280;54687;50.800;6.772;2023-05-07T05:10:05;60941.97;;;-144.06;64.92
11017;BME280;54687;50.800;6.772;2023-05-07T05:12:32;60941.97;;;-144.06;64.82
11017;BME280;54687;50.800;6.772;2023-05-07T05:14:58;60977.63;;;-144.06;64.15
11017;BME280;54687;50.800;6.772;2023-05-07T05:17:25;60931.50;;;-144.06;63.96
11017;BME280;54687;50.800;6.772;2023-05-07T05:19:51;60946.19;;;-144.06;63.45
11017;BME280;54687;50.800;6.772;2023-05-07T05:22:18;60918.94;;;-144.06;63.46
11017;BME280;54687;50.800;6.772;2023-05-07T05:24:46;60925.22;;;-144.06;63.45
11017;BME280;54687;50.800;6.772;2023-05-07T05:27:12;60950.38;;;-144.06;62.83
11017;BME280;54687;50.800;6.772;2023-05-07T05:29:39;60937.78;;;-144.06;62.81
11017;BME280;54687;50.800;6.772;2023-05-07T05:32:05;60944.09;;;-144.06;62.24
11017;BME280;54687;50.800;6.772;2023-05-07T05:34:32;60971.34;;;-144.06;62.24
11017;BME280;54687;50.800;6.772;2023-05-07T05:36:59;60946.19;;;-144.06;62.29
11017;BME280;54687;50.800;6.772;2023-05-07T05:39:26;60925.22;;;-144.06;62.20
11017;BME280;54687;50.800;6.772;2023-05-07T05:41:54;60931.50;;;-144.06;61.97
11017;BME280;54687;50.800;6.772;2023-05-07T05:44:20;60902.16;;;-144.06;61.79
11017;BME280;54687;50.800;6.772;2023-05-07T05:46:47;60908.44;;;-144.06;61.63
11017;BME280;54687;50.800;6.772;2023-05-07T05:49:14;60962.94;;;-144.06;61.33
11017;BME280;54687;50.800;6.772;2023-05-07T05:51:42;60925.22;;;-144.06;60.74
11017;BME280;54687;50.800;6.772;2023-05-07T05:54:09;60891.69;;;-144.06;60.50
11017;BME280;54687;50.800;6.772;2023-05-07T05:56:36;60933.59;;;-144.06;60.41
11017;BME280;54687;50.800;6.772;2023-05-07T05:59:04;60946.19;;;-144.06;60.28
11017;BME280;54687;50.800;6.772;2023-05-07T06:01:31;60921.03;;;-144.06;60.34
11017;BME280;54687;50.800;6.772;2023-05-07T06:03:57;60946.19;;;-144.06;60.08
11017;BME280;54687;50.800;6.772;2023-05-07T06:06:24;60912.63;;;-144.06;59.92
11017;BME280;54687;50.800;6.772;2023-05-07T06:08:51;60895.88;;;-144.06;59.65
11017;BME280;54687;50.800;6.772;2023-05-07T06:11:17;60923.13;;;-144.06;59.43
11017;BME280;54687;50.800;6.772;2023-05-07T06:13:44;60883.28;;;-144.06;59.38
11017;BME280;54687;50.800;6.772;2023-05-07T06:16:12;60866.53;;;-144.06;59.32
11017;BME280;54687;50.800;6.772;2023-05-07T06:18:40;60906.34;;;-144.06;59.02
11017;BME280;54687;50.800;6.772;2023-05-07T06:21:07;60883.28;;;-144.06;58.57
11017;BME280;54687;50.800;6.772;2023-05-07T06:23:33;60874.91;;;-144.06;58.35
11017;BME280;54687;50.800;6.772;2023-05-07T06:26:00;60904.25;;;-144.06;57.63
11017;BME280;54687;50.800;6.772;2023-05-07T06:28:26;60849.75;;;-144.06;57.29
11017;BME280;54687;50.800;6.772;2023-05-07T06:31:12;60874.91;;;-144.06;56.87
11017;BME280;54687;50.800;6.772;2023-05-07T06:33:39;60874.91;;;-144.06;56.84
11017;BME280;54687;50.800;6.772;2023-05-07T06:36:06;60887.47;;;-144.06;57.00
11017;BME280;54687;50.800;6.772;2023-05-07T06:38:32;60887.47;;;-144.06;56.82
11017;BME280;54687;50.800;6.772;2023-05-07T06:40:59;60828.78;;;-144.06;56.60
11017;BME280;54687;50.800;6.772;2023-05-07T06:43:25;60887.47;;;-144.06;56.26
11017;BME280;54687;50.800;6.772;2023-05-07T06:45:52;60862.34;;;-144.06;56.27
11017;BME280;54687;50.800;6.772;2023-05-07T06:48:20;60908.44;;;-144.06;55.81
11017;BME280;54687;50.800;6.772;2023-05-07T06:50:46;60853.94;;;-144.06;55.89
11017;BME280;54687;50.800;6.772;2023-05-07T06:53:13;60858.13;;;-144.06;55.82
11017;BME280;54687;50.800;6.772;2023-05-07T06:55:39;60864.44;;;-144.06;55.40
11017;BME280;54687;50.800;6.772;2023-05-07T06:58:07;60858.13;;;-144.06;55.99
11017;BME280;54687;50.800;6.772;2023-05-07T07:00:33;60845.56;;;-144.06;55.62
11017;BME280;54687;50.800;6.772;2023-05-07T07:03:00;60870.72;;;-144.06;54.77
11017;BME280;54687;50.800;6.772;2023-05-07T07:05:28;60839.28;;;-144.06;55.25
11017;BME280;54687;50.800;6.772;2023-05-07T07:07:54;60870.72;;;-144.06;55.01
11017;BME280;54687;50.800;6.772;2023-05-07T07:10:21;60858.13;;;-144.06;54.79
11017;BME280;54687;50.800;6.772;2023-05-07T07:12:49;60853.94;;;-144.06;53.91
11017;BME280;54687;50.800;6.772;2023-05-07T07:15:16;60830.88;;;-144.06;53.74
11017;BME280;54687;50.800;6.772;2023-05-07T07:17:42;60807.84;;;-144.06;54.30
11017;BME280;54687;50.800;6.772;2023-05-07T07:20:10;60870.72;;;-144.06;54.28
11017;BME280;54687;50.800;6.772;2023-05-07T07:22:38;60803.66;;;-144.06;52.88
11017;BME280;54687;50.800;6.772;2023-05-07T07:25:05;60799.44;;;-144.06;53.19
11017;BME280;54687;50.800;6.772;2023-05-07T07:27:32;60824.59;;;-144.06;53.32
11017;BME280;54687;50.800;6.772;2023-05-07T07:29:58;60837.19;;;-144.06;53.22
11017;BME280;54687;50.800;6.772;2023-05-07T07:32:25;60807.84;;;-144.06;53.35
11017;BME280;54687;50.800;6.772;2023-05-07T07:34:54;60805.75;;;-144.06;52.93
11017;BME280;54687;50.800;6.772;2023-05-07T07:37:20;60830.88;;;-144.06;51.72
11017;BME280;54687;50.800;6.772;2023-05-07T07:39:48;60788.97;;;-144.06;50.85
11017;BME280;54687;50.800;6.772;2023-05-07T07:42:15;60757.53;;;-144.06;51.01
11017;BME280;54687;50.800;6.772;2023-05-07T07:44:41;60833.00;;;-144.06;49.95
11017;BME280;54687;50.800;6.772;2023-05-07T07:47:08;60791.06;;;-144.06;51.31
11017;BME280;54687;50.800;6.772;2023-05-07T07:49:36;60828.78;;;-144.06;50.83
11017;BME280;54687;50.800;6.772;2023-05-07T07:52:03;60765.91;;;-144.06;50.06
11017;BME280;54687;50.800;6.772;2023-05-07T07:54:30;60820.41;;;-144.06;50.72
11017;BME280;54687;50.800;6.772;2023-05-07T07:56:58;60788.97;;;-144.06;49.52
11017;BME280;54687;50.800;6.772;2023-05-07T07:59:25;60778.50;;;-144.06;50.75
11017;BME280;54687;50.800;6.772;2023-05-07T08:01:51;60820.41;;;-144.06;50.79
11017;BME280;54687;50.800;6.772;2023-05-07T08:04:23;60776.41;;;-144.06;51.01
11017;BME280;54687;50.800;6.772;2023-05-07T08:06:50;60803.66;;;-144.06;50.65
11017;BME280;54687;50.800;6.772;2023-05-07T08:09:16;60778.50;;;-144.06;49.64
11017;BME280;54687;50.800;6.772;2023-05-07T08:11:43;60749.16;;;-144.06;49.25
11017;BME280;54687;50.800;6.772;2023-05-07T08:14:11;60749.16;;;-144.06;49.80
11017;BME280;54687;50.800;6.772;2023-05-07T08:16:38;60778.50;;;-144.06;49.33
11017;BME280;54687;50.800;6.772;2023-05-07T08:19:04;60757.53;;;-144.06;49.68
11017;BME280;54687;50.800;6.772;2023-05-07T08:21:31;60755.44;;;-144.06;50.05
11017;BME280;54687;50.800;6.772;2023-05-07T08:23:58;60759.63;;;-144.06;49.74
11017;BME280;54687;50.800;6.772;2023-05-07T08:26:25;60755.44;;;-144.06;49.44
11017;BME280;54687;50.800;6.772;2023-05-07T08:28:51;60753.34;;;-144.06;49.47
11017;BME280;54687;50.800;6.772;2023-05-07T08:31:19;60736.56;;;-144.06;49.10
11017;BME280;54687;50.800;6.772;2023-05-07T08:33:46;60786.88;;;-144.06;48.68
11017;BME280;54687;50.800;6.772;2023-05-07T08:36:12;60786.88;;;-144.06;49.57
11017;BME280;54687;50.800;6.772;2023-05-07T08:38:39;60753.34;;;-144.06;48.96
11017;BME280;54687;50.800;6.772;2023-05-07T08:41:09;60707.22;;;-144.06;49.00
11017;BME280;54687;50.800;6.772;2023-05-07T08:43:37;60765.91;;;-144.06;49.07
11017;BME280;54687;50.800;6.772;2023-05-07T08:46:05;60755.44;;;-144.06;47.88
11017;BME280;54687;50.800;6.772;2023-05-07T08:48:34;60772.19;;;-144.06;48.15
11017;BME280;54687;50.800;6.772;2023-05-07T08:51:02;60784.78;;;-144.06;47.62
11017;BME280;54687;50.800;6.772;2023-05-07T08:53:29;60728.19;;;-144.06;47.88
11017;BME280;54687;50.800;6.772;2023-05-07T08:55:56;60761.72;;;-144.06;47.85
11017;BME280;54687;50.800;6.772;2023-05-07T08:58:23;60761.72;;;-144.06;48.15
11017;BME280;54687;50.800;6.772;2023-05-07T09:00:50;60753.34;;;-144.06;47.29
11017;BME280;54687;50.800;6.772;2023-05-07T09:03:19;60753.34;;;-144.06;46.06
11017;BME280;54687;50.800;6.772;2023-05-07T09:05:48;60759.63;;;-144.06;46.92
11017;BME280;54687;50.800;6.772;2023-05-07T09:08:15;60755.44;;;-144.06;46.62
11017;BME280;54687;50.800;6.772;2023-05-07T09:10:42;60726.09;;;-144.06;46.83
11017;BME280;54687;50.800;6.772;2023-05-07T09:13:08;60761.72;;;-144.06;47.56
11017;BME280;54687;50.800;6.772;2023-05-07T09:15:38;60757.53;;;-144.06;47.29
11017;BME280;54687;50.800;6.772;2023-05-07T09:18:04;60724.00;;;-144.06;47.78
11017;BME280;54687;50.800;6.772;2023-05-07T09:20:31;60774.28;;;-144.06;47.98
11017;BME280;54687;50.800;6.772;2023-05-07T09:22:59;60774.28;;;-144.06;47.49
11017;BME280;54687;50.800;6.772;2023-05-07T09:25:29;60757.53;;;-144.06;46.79
11017;BME280;54687;50.800;6.772;2023-05-07T09:27:59;60799.44;;;-144.06;48.01
11017;BME280;54687;50.800;6.772;2023-05-07T09:30:27;60812.03;;;-144.06;48.44
11017;BME280;54687;50.800;6.772;2023-05-07T09:32:54;60774.28;;;-144.06;47.82
11017;BME280;54687;50.800;6.772;2023-05-07T09:35:21;60749.16;;;-144.06;48.07
11017;BME280;54687;50.800;6.772;2023-05-07T09:37:49;60784.78;;;-144.06;48.30
11017;BME280;54687;50.800;6.772;2023-05-07T09:40:24;60749.16;;;-144.06;47.83
11017;BME280;54687;50.800;6.772;2023-05-07T09:42:51;60736.56;;;-144.06;48.40
11017;BME280;54687;50.800;6.772;2023-05-07T09:45:21;60765.91;;;-144.06;48.58
11017;BME280;54687;50.800;6.772;2023-05-07T09:47:50;60793.16;;;-144.06;48.10
11017;BME280;54687;50.800;6.772;2023-05-07T09:50:22;60744.94;;;-144.06;47.94
11017;BME280;54687;50.800;6.772;2023-05-07T09:52:51;60753.34;;;-144.06;47.92
11017;BME280;54687;50.800;6.772;2023-05-07T09:55:18;60759.63;;;-144.06;47.30
11017;BME280;54687;50.800;6.772;2023-05-07T09:57:49;60753.34;;;-144.06;47.24
11017;BME280;54687;50.800;6.772;2023-05-07T10:00:17;60793.16;;;-144.06;47.44
11017;BME280;54687;50.800;6.772;2023-05-07T10:02:46;60749.16;;;-144.06;47.38
11017;BME280;54687;50.800;6.772;2023-05-07T10:05:14;60744.94;;;-144.06;46.41
11017;BME280;54687;50.800;6.772;2023-05-07T10:07:41;60757.53;;;-144.06;47.03
11017;BME280;54687;50.800;6.772;2023-05-07T10:10:08;60740.75;;;-144.06;47.05
11017;BME280;54687;50.800;6.772;2023-05-07T10:12:35;60738.66;;;-144.06;46.92
11017;BME280;54687;50.800;6.772;2023-05-07T10:15:07;60751.25;;;-144.06;46.73
11017;BME280;54687;50.800;6.772;2023-05-07T10:17:36;60757.53;;;-144.06;47.01
11017;BME280;54687;50.800;6.772;2023-05-07T10:20:03;60738.66;;;-144.06;46.78
11017;BME280;54687;50.800;6.772;2023-05-07T10:22:33;60768.00;;;-144.06;46.56
11017;BME280;54687;50.800;6.772;2023-05-07T10:25:02;60724.00;;;-144.06;45.96
11017;BME280;54687;50.800;6.772;2023-05-07T10:27:30;60744.94;;;-144.06;46.06
11017;BME280;54687;50.800;6.772;2023-05-07T10:30:04;60711.41;;;-144.06;45.60
11017;BME280;54687;50.800;6.772;2023-05-07T10:32:39;60736.56;;;-144.06;44.79
11017;BME280;54687;50.800;6.772;2023-05-07T10:35:10;60717.72;;;-144.06;44.72
11017;BME280;54687;50.800;6.772;2023-05-07T10:37:39;60736.56;;;-144.06;44.88
11017;BME280;54687;50.800;6.772;2023-05-07T10:40:07;60721.91;;;-144.06;44.41
11017;BME280;54687;50.800;6.772;2023-05-07T10:42:34;60648.53;;;-144.06;43.49
11017;BME280;54687;50.800;6.772;2023-05-07T10:45:13;60640.16;;;-144.06;42.93
11017;BME280;54687;50.800;6.772;2023-05-07T10:50:41;60673.69;;;-144.06;42.18
11017;BME280;54687;50.800;6.772;2023-05-07T10:53:22;60661.13;;;-144.06;41.13
11017;BME280;54687;50.800;6.772;2023-05-07T10:55:52;60671.59;;;-144.06;41.21
11017;BME280;54687;50.800;6.772;2023-05-07T10:58:38;60633.88;;;-144.06;40.93
11017;BME280;54687;50.800;6.772;2023-05-07T11:01:05;60635.97;;;-144.06;40.62
11017;BME280;54687;50.800;6.772;2023-05-07T11:03:31;60606.63;;;-144.06;40.60
11017;BME280;54687;50.800;6.772;2023-05-07T11:06:13;60589.84;;;-144.06;39.53
11017;BME280;54687;50.800;6.772;2023-05-07T11:08:52;60642.25;;;-144.06;39.76
11017;BME280;54687;50.800;6.772;2023-05-07T11:11:45;60602.44;;;-144.06;39.29
11017;BME280;54687;50.800;6.772;2023-05-07T11:14:13;60629.69;;;-144.06;39.91
11017;BME280;54687;50.800;6.772;2023-05-07T11:16:41;60602.44;;;-144.06;39.78
11017;BME280;54687;50.800;6.772;2023-05-07T11:19:08;60612.91;;;-144.06;38.54
11017;BME280;54687;50.800;6.772;2023-05-07T11:21:37;60554.22;;;-144.06;38.26
11017;BME280;54687;50.800;6.772;2023-05-07T11:24:05;60602.44;;;-144.06;38.20
11017;BME280;54687;50.800;6.772;2023-05-07T11:26:42;60589.84;;;-144.06;37.99
11017;BME280;54687;50.800;6.772;2023-05-07T11:29:14;60583.56;;;-144.06;38.20
11017;BME280;54687;50.800;6.772;2023-05-07T11:31:41;60566.78;;;-144.06;38.56
11017;BME280;54687;50.800;6.772;2023-05-07T11:34:08;60581.47;;;-144.06;38.92
11017;BME280;54687;50.800;6.772;2023-05-07T11:36:42;60533.25;;;-144.06;37.86
11017;BME280;54687;50.800;6.772;2023-05-07T11:39:26;60543.75;;;-144.06;36.84
11017;BME280;54687;50.800;6.772;2023-05-07T11:41:52;60568.88;;;-144.06;37.39
11017;BME280;54687;50.800;6.772;2023-05-07T11:44:19;60594.03;;;-144.06;36.61
11017;BME280;54687;50.800;6.772;2023-05-07T11:46:46;60594.03;;;-144.06;36.60
11017;BME280;54687;50.800;6.772;2023-05-07T11:49:12;60587.75;;;-144.06;38.01
11017;BME280;54687;50.800;6.772;2023-05-07T11:51:40;60591.94;;;-144.06;38.33
11017;BME280;54687;50.800;6.772;2023-05-07T11:54:08;60581.47;;;-144.06;39.47
11017;BME280;54687;50.800;6.772;2023-05-07T11:56:36;60665.31;;;-144.06;40.47
11017;BME280;54687;50.800;6.772;2023-05-07T11:59:04;60707.22;;;-144.06;40.43
11017;BME280;54687;50.800;6.772;2023-05-07T12:01:31;60673.69;;;-144.06;41.08
11017;BME280;54687;50.800;6.772;2023-05-07T12:03:57;60715.59;;;-144.06;41.70
11017;BME280;54687;50.800;6.772;2023-05-07T12:06:24;60667.41;;;-144.06;40.91
11017;BME280;54687;50.800;6.772;2023-05-07T12:08:53;60711.41;;;-144.06;41.08
11017;BME280;54687;50.800;6.772;2023-05-07T12:11:23;60686.25;;;-144.06;41.16
11017;BME280;54687;50.800;6.772;2023-05-07T12:13:50;60717.72;;;-144.06;41.63
11017;BME280;54687;50.800;6.772;2023-05-07T12:16:17;60719.81;;;-144.06;41.60
11017;BME280;54687;50.800;6.772;2023-05-07T12:18:44;60724.00;;;-144.06;41.82
11017;BME280;54687;50.800;6.772;2023-05-07T12:21:11;60744.94;;;-144.06;42.26
11017;BME280;54687;50.800;6.772;2023-05-07T12:23:38;60715.59;;;-144.06;42.80
11017;BME280;54687;50.800;6.772;2023-05-07T12:26:06;60782.69;;;-144.06;44.63
11017;BME280;54687;50.800;6.772;2023-05-07T12:28:36;60757.53;;;-144.06;45.77
11017;BME280;54687;50.800;6.772;2023-05-07T12:31:04;60726.09;;;-144.06;46.35
11017;BME280;54687;50.800;6.772;2023-05-07T12:33:31;60761.72;;;-144.06;46.24
11017;BME280;54687;50.800;6.772;2023-05-07T12:36:02;60724.00;;;-144.06;46.14
11017;BME280;54687;50.800;6.772;2023-05-07T12:38:34;60749.16;;;-144.06;46.37
11017;BME280;54687;50.800;6.772;2023-05-07T12:41:02;60724.00;;;-144.06;46.09
11017;BME280;54687;50.800;6.772;2023-05-07T12:43:30;60753.34;;;-144.06;45.91
11017;BME280;54687;50.800;6.772;2023-05-07T12:46:04;60749.16;;;-144.06;45.99